createdAt,value
2022-07-27T00:00:49.803Z,97314.13
2022-07-27T00:03:16.887Z,97309.66
2022-07-27T00:05:43.927Z,97308.22
2022-07-27T00:08:10.849Z,97311.06
2022-07-27T00:10:38.091Z,97309.66
2022-07-27T00:13:06.533Z,97312.38
2022-07-27T00:15:34.511Z,97318.44
2022-07-27T00:18:01.546Z,97318.44
2022-07-27T00:20:30.414Z,97307.56
2022-07-27T00:22:58.562Z,97297.00
2022-07-27T00:25:29.554Z,97301.63
2022-07-27T00:27:59.521Z,97311.84
2022-07-27T00:30:26.952Z,97314.25
2022-07-27T00:32:54.362Z,97304.47
2022-07-27T00:35:21.406Z,97307.84
2022-07-27T00:37:48.431Z,97306.22
2022-07-27T00:40:15.938Z,97303.53
2022-07-27T00:42:43.024Z,97302.06
2022-07-27T00:45:10.518Z,97297.59
2022-07-27T00:47:37.498Z,97300.50
2022-07-27T00:50:05.174Z,97294.88
2022-07-27T00:52:32.571Z,97291.22
2022-07-27T00:55:00.013Z,97293.94
2022-07-27T00:57:28.319Z,97290.41
2022-07-27T00:59:55.558Z,97291.22
2022-07-27T01:02:23.373Z,97289.13
2022-07-27T01:04:53.603Z,97291.19
2022-07-27T01:07:22.641Z,97281.28
2022-07-27T01:09:57.071Z,97293.44
2022-07-27T01:12:33.006Z,97292.16
2022-07-27T01:15:00.305Z,97286.06
2022-07-27T01:17:31.601Z,97295.50
2022-07-27T01:19:59.326Z,97296.75
2022-07-27T01:22:26.453Z,97283.47
2022-07-27T01:24:53.476Z,97292.47
2022-07-27T01:27:20.702Z,97292.09
2022-07-27T01:29:48.003Z,97292.91
2022-07-27T01:32:15.001Z,97289.09
2022-07-27T01:34:42.005Z,97290.50
2022-07-27T01:37:08.947Z,97286.38
2022-07-27T01:39:36.111Z,97282.50
2022-07-27T01:42:05.052Z,97281.91
2022-07-27T01:44:31.967Z,97275.13
2022-07-27T01:46:58.941Z,97283.28
2022-07-27T01:49:26.066Z,97282.97
2022-07-27T01:51:53.182Z,97280.88
2022-07-27T01:54:20.195Z,97284.22
2022-07-27T01:56:47.261Z,97277.97
2022-07-27T01:59:16.629Z,97266.16
2022-07-27T02:01:45.354Z,97264.72
2022-07-27T02:04:12.538Z,97262.94
2022-07-27T02:06:40.017Z,97264.69
2022-07-27T02:09:07.019Z,97265.97
2022-07-27T02:11:52.509Z,97261.81
2022-07-27T02:14:21.415Z,97262.78
2022-07-27T02:16:49.938Z,97259.84
2022-07-27T02:19:18.197Z,97262.22
2022-07-27T02:21:45.471Z,97265.41
2022-07-27T02:24:12.548Z,97263.53
2022-07-27T02:26:39.934Z,97263.41
2022-07-27T02:29:07.517Z,97262.19
2022-07-27T02:31:34.461Z,97267.81
2022-07-27T02:34:01.781Z,97269.91
2022-07-27T02:36:31.582Z,97255.81
2022-07-27T02:38:58.874Z,97256.19
2022-07-27T02:41:26.060Z,97262.94
2022-07-27T02:43:53.158Z,97263.66
2022-07-27T02:46:20.232Z,97268.91
2022-07-27T02:48:47.263Z,97269.34
2022-07-27T02:51:15.354Z,65835.13
2022-07-27T02:53:42.654Z,65835.13
2022-07-27T02:56:09.770Z,65835.13
2022-07-27T02:58:37.722Z,65835.13
2022-07-27T03:01:06.020Z,65835.13
2022-07-27T03:03:37.123Z,65835.13
2022-07-27T03:06:08.760Z,65835.13
2022-07-27T03:08:36.308Z,65835.13
2022-07-27T03:11:03.328Z,65835.13
2022-07-27T03:13:30.524Z,65835.13
2022-07-27T03:15:58.339Z,65835.13
2022-07-27T03:18:25.697Z,65835.13
2022-07-27T03:20:52.758Z,65835.13
2022-07-27T03:23:19.784Z,65835.13
2022-07-27T03:25:46.808Z,65835.13
2022-07-27T03:28:13.861Z,65835.13
2022-07-27T03:30:40.854Z,65835.13
2022-07-27T03:33:07.963Z,65835.13
2022-07-27T03:35:35.264Z,65835.13
2022-07-27T03:38:02.370Z,65835.13
2022-07-27T03:40:32.181Z,65835.13
2022-07-27T03:42:59.818Z,65835.13
2022-07-27T03:45:27.225Z,65835.13
2022-07-27T03:47:54.344Z,65835.13
2022-07-27T03:50:21.873Z,65835.13
2022-07-27T03:52:48.865Z,65835.13
2022-07-27T03:55:15.869Z,65835.13
2022-07-27T03:57:42.776Z,65835.13
2022-07-27T04:00:14.155Z,65835.13
2022-07-27T04:02:41.993Z,65835.13
2022-07-27T04:05:10.156Z,65835.13
2022-07-27T04:07:37.132Z,65835.13
2022-07-27T04:10:04.921Z,65835.13
2022-07-27T04:12:32.020Z,65835.13
2022-07-27T04:14:58.956Z,65835.13
2022-07-27T04:17:56.351Z,65835.13
2022-07-27T04:20:13.126Z,65835.13
2022-07-27T04:22:41.845Z,65835.13
2022-07-27T04:25:09.213Z,65835.13
2022-07-27T04:27:36.307Z,65835.13
2022-07-27T04:30:09.213Z,65835.13
2022-07-27T04:32:37.530Z,65835.13
2022-07-27T04:35:06.365Z,65835.13
2022-07-27T04:37:34.023Z,65835.13
2022-07-27T04:40:01.350Z,65835.13
2022-07-27T04:42:30.114Z,65835.13
2022-07-27T04:44:57.841Z,65835.13
2022-07-27T04:47:24.789Z,65835.13
2022-07-27T04:49:52.015Z,65835.13
2022-07-27T04:52:19.390Z,65835.13
2022-07-27T04:54:54.614Z,65835.13
2022-07-27T04:57:23.323Z,65835.13
2022-07-27T04:59:50.348Z,65835.13
2022-07-27T05:02:17.361Z,65835.13
2022-07-27T05:04:44.304Z,65835.13
2022-07-27T05:07:11.309Z,65835.13
2022-07-27T05:09:38.272Z,65835.13
2022-07-27T05:12:05.353Z,65835.13
2022-07-27T05:14:32.350Z,65835.13
2022-07-27T05:16:59.425Z,65835.13
2022-07-27T05:19:40.409Z,65835.13
2022-07-27T05:22:08.788Z,65835.13
2022-07-27T05:24:35.799Z,65835.13
2022-07-27T05:27:02.786Z,65835.13
2022-07-27T05:29:29.709Z,65835.13
2022-07-27T05:31:56.751Z,65835.13
2022-07-27T05:34:23.796Z,65835.13
2022-07-27T05:36:50.762Z,65835.13
2022-07-27T05:39:18.019Z,65835.13
2022-07-27T05:41:45.246Z,65835.13
2022-07-27T05:44:12.213Z,65835.13
2022-07-27T05:46:39.351Z,65835.13
2022-07-27T05:49:06.528Z,65835.13
2022-07-27T05:51:33.590Z,65835.13
2022-07-27T05:54:00.576Z,65835.13
2022-07-27T05:56:27.740Z,65835.13
2022-07-27T05:58:54.861Z,65835.13
2022-07-27T06:01:22.185Z,65835.13
2022-07-27T06:03:49.367Z,65835.13
2022-07-27T06:06:35.203Z,65835.13
2022-07-27T06:09:02.376Z,65835.13
2022-07-27T06:11:29.309Z,65835.13
2022-07-27T06:13:56.503Z,65835.13
2022-07-27T06:16:23.994Z,65835.13
2022-07-27T06:18:51.165Z,65835.13
2022-07-27T06:21:18.185Z,65835.13
2022-07-27T06:23:45.318Z,65835.13
2022-07-27T06:26:12.234Z,65835.13
2022-07-27T06:28:39.175Z,65835.13
2022-07-27T06:31:06.245Z,65835.13
2022-07-27T06:33:34.426Z,65835.13
2022-07-27T06:36:02.566Z,65835.13
2022-07-27T06:38:30.160Z,65835.13
2022-07-27T06:40:57.138Z,65835.13
2022-07-27T06:43:26.413Z,65835.13
2022-07-27T06:45:54.775Z,65835.13
2022-07-27T06:48:22.450Z,65835.13
2022-07-27T06:50:50.114Z,65835.13
2022-07-27T06:53:20.793Z,65835.13
2022-07-27T06:55:48.418Z,65835.13
2022-07-27T06:58:15.340Z,65835.13
2022-07-27T07:00:42.423Z,65835.13
2022-07-27T07:03:10.238Z,65835.13
2022-07-27T07:05:46.008Z,65835.13
2022-07-27T07:08:13.787Z,65835.13
2022-07-27T07:10:44.888Z,65835.13
2022-07-27T07:13:12.659Z,65835.13
2022-07-27T07:15:41.678Z,65835.13
2022-07-27T07:18:09.495Z,65835.13
2022-07-27T07:20:37.983Z,65835.13
2022-07-27T07:23:05.974Z,65835.13
2022-07-27T07:25:33.854Z,65835.13
2022-07-27T07:28:00.942Z,65835.13
2022-07-27T07:30:28.543Z,65835.13
2022-07-27T07:32:56.441Z,65835.13
2022-07-27T07:35:24.113Z,65835.13
2022-07-27T07:37:51.276Z,65835.13
2022-07-27T07:43:07.388Z,65835.13
2022-07-27T07:45:45.177Z,65835.13
2022-07-27T07:48:22.385Z,65835.13
2022-07-27T07:50:52.136Z,65835.13
2022-07-27T07:53:23.111Z,65835.13
2022-07-27T07:55:51.487Z,65835.13
2022-07-27T07:58:19.008Z,65835.13
2022-07-27T08:00:46.347Z,65835.13
2022-07-27T08:03:13.498Z,65835.13
2022-07-27T08:05:40.620Z,65835.13
2022-07-27T08:08:07.606Z,65835.13
2022-07-27T08:10:34.543Z,65835.13
2022-07-27T08:13:01.614Z,65835.13
2022-07-27T08:15:34.627Z,65835.13
2022-07-27T08:18:05.357Z,65835.13
2022-07-27T08:20:33.176Z,65835.13
2022-07-27T08:23:00.723Z,65835.13
2022-07-27T08:25:27.823Z,65835.13
2022-07-27T08:27:55.571Z,65835.13
2022-07-27T08:30:24.251Z,65835.13
2022-07-27T08:33:01.154Z,65835.13
2022-07-27T08:35:29.945Z,65835.13
2022-07-27T08:37:57.518Z,65835.13
2022-07-27T08:40:39.693Z,65835.13
2022-07-27T08:43:08.915Z,65835.13
2022-07-27T08:45:37.512Z,65835.13
2022-07-27T08:48:05.472Z,65835.13
2022-07-27T08:50:34.906Z,65835.13
2022-07-27T08:53:07.485Z,65835.13
2022-07-27T08:55:43.506Z,65835.13
2022-07-27T08:58:12.495Z,65835.13
2022-07-27T09:00:41.698Z,65835.13
2022-07-27T09:03:18.420Z,65835.13
2022-07-27T09:05:48.729Z,65835.13
2022-07-27T09:08:18.257Z,65835.13
2022-07-27T09:10:45.254Z,65835.13
2022-07-27T09:13:33.477Z,65835.13
2022-07-27T09:16:21.909Z,65835.13
2022-07-27T09:18:58.487Z,65835.13
2022-07-27T09:21:25.918Z,65835.13
2022-07-27T09:23:53.966Z,65835.13
2022-07-27T09:26:31.949Z,65835.13
2022-07-27T09:29:08.076Z,65835.13
2022-07-27T09:32:14.744Z,65835.13
2022-07-27T09:34:41.798Z,65835.13
2022-07-27T09:37:10.961Z,65835.13
2022-07-27T09:39:39.267Z,65835.13
2022-07-27T09:42:08.128Z,65835.13
2022-07-27T10:16:37.918Z,97356.47
2022-07-27T10:19:45.233Z,97362.84
2022-07-27T10:22:11.989Z,97369.19
2022-07-27T10:24:39.189Z,97363.69
2022-07-27T10:27:28.012Z,97369.25
2022-07-27T10:29:56.610Z,97366.63
2022-07-27T10:32:25.372Z,97361.91
2022-07-27T10:34:52.408Z,97374.72
2022-07-27T10:37:32.661Z,97355.66
2022-07-27T10:40:27.559Z,97363.19
2022-07-27T10:43:26.678Z,97371.63
2022-07-27T10:46:01.394Z,97365.66
2022-07-27T10:48:47.796Z,97364.50
2022-07-27T10:51:17.003Z,97362.97
2022-07-27T10:54:10.850Z,97368.72
2022-07-27T10:56:46.894Z,97363.50
2022-07-27T10:59:14.156Z,97359.28
2022-07-27T11:01:57.790Z,97371.56
2022-07-27T11:04:25.201Z,97370.75
2022-07-27T11:07:23.510Z,97365.63
2022-07-27T11:12:31.582Z,97370.88
2022-07-27T11:14:59.007Z,97366.31
2022-07-27T11:20:14.819Z,97361.34
2022-07-27T11:25:29.297Z,97363.03
2022-07-27T11:27:56.306Z,97358.50
2022-07-27T11:30:28.015Z,97359.72
2022-07-27T11:32:56.041Z,97364.66
2022-07-27T11:35:24.245Z,97368.72
2022-07-27T11:38:03.912Z,97359.63
2022-07-27T11:40:58.035Z,97358.41
2022-07-27T11:43:42.070Z,97359.97
2022-07-27T11:46:28.108Z,97367.25
2022-07-27T11:49:09.198Z,97360.81
2022-07-27T11:51:47.808Z,97359.22
2022-07-27T11:54:23.556Z,97355.28
2022-07-27T11:56:53.684Z,97351.63
2022-07-27T11:59:22.687Z,97355.78
2022-07-27T12:02:01.152Z,97354.53
2022-07-27T12:04:33.467Z,97344.88
2022-07-27T12:07:02.497Z,97346.91
2022-07-27T12:09:38.089Z,97342.63
2022-07-27T12:12:08.738Z,97338.72
2022-07-27T12:14:38.666Z,97343.94
2022-07-27T12:17:30.300Z,97336.84
2022-07-27T12:20:05.470Z,97333.75
2022-07-27T12:22:36.299Z,97329.50
2022-07-27T12:25:18.510Z,97333.91
2022-07-27T12:27:55.063Z,97340.03
2022-07-27T12:30:42.278Z,97338.69
2022-07-27T12:33:36.983Z,97327.16
2022-07-27T12:36:06.851Z,97330.16
2022-07-27T12:38:51.936Z,97332.63
2022-07-27T12:41:31.125Z,97329.09
2022-07-27T12:44:09.256Z,97331.19
2022-07-27T12:47:02.557Z,97333.28
2022-07-27T12:49:34.782Z,97328.69
2022-07-27T12:52:08.516Z,97324.63
2022-07-27T12:54:35.648Z,97326.00
2022-07-27T12:57:03.398Z,97325.63
2022-07-27T12:59:30.455Z,97330.78
2022-07-27T13:01:57.692Z,97319.34
2022-07-27T13:04:24.789Z,97321.56
2022-07-27T13:06:51.744Z,97321.13
2022-07-27T13:09:18.754Z,97324.00
2022-07-27T13:11:48.131Z,97326.38
2022-07-27T13:14:15.673Z,97326.97
2022-07-27T13:16:42.711Z,97330.75
2022-07-27T13:19:10.476Z,97326.31
2022-07-27T13:21:37.994Z,97319.13
2022-07-27T13:24:07.161Z,97323.47
2022-07-27T13:26:34.099Z,97328.00
2022-07-27T13:29:01.103Z,97329.53
2022-07-27T13:31:28.617Z,97325.13
2022-07-27T13:33:55.949Z,97331.34
2022-07-27T13:36:23.040Z,97325.88
2022-07-27T13:38:50.303Z,97329.16
2022-07-27T13:41:17.477Z,97328.97
2022-07-27T13:43:44.381Z,97323.28
2022-07-27T13:46:11.362Z,97319.78
2022-07-27T13:48:38.333Z,97322.63
2022-07-27T13:51:05.364Z,97321.66
2022-07-27T13:53:32.367Z,97329.00
2022-07-27T13:55:59.406Z,97320.59
2022-07-27T13:58:26.342Z,97323.94
2022-07-27T14:00:53.451Z,97325.09
2022-07-27T14:03:20.718Z,97323.06
2022-07-27T14:05:49.103Z,97326.66
2022-07-27T14:08:21.971Z,97313.97
2022-07-27T14:10:49.481Z,97317.75
2022-07-27T14:13:21.682Z,97310.47
2022-07-27T14:15:53.700Z,97306.97
2022-07-27T14:18:27.605Z,97310.50
2022-07-27T14:20:56.442Z,97316.22
2022-07-27T14:23:25.190Z,97300.00
2022-07-27T14:25:53.328Z,97310.41
2022-07-27T14:28:20.741Z,97306.06
2022-07-27T14:30:49.041Z,97303.06
2022-07-27T14:33:16.963Z,97299.50
2022-07-27T14:35:45.297Z,97298.53
2022-07-27T14:38:12.434Z,97305.53
2022-07-27T14:40:40.679Z,97306.13
2022-07-27T14:43:09.163Z,97305.47
2022-07-27T14:45:44.001Z,97307.53
2022-07-27T14:48:21.480Z,97310.69
2022-07-27T14:50:52.350Z,97304.44
2022-07-27T14:53:19.321Z,97308.81
2022-07-27T14:55:46.231Z,97306.66
2022-07-27T14:58:13.285Z,97308.34
2022-07-27T15:00:40.474Z,97301.72
2022-07-27T15:03:07.543Z,97296.81
2022-07-27T15:05:49.343Z,97289.59
2022-07-27T15:08:20.137Z,97291.00
2022-07-27T15:10:47.597Z,97296.00
2022-07-27T15:13:15.024Z,97289.94
2022-07-27T15:15:42.226Z,97294.84
2022-07-27T15:18:09.193Z,97294.97
2022-07-27T15:20:36.568Z,97298.97
2022-07-27T15:23:04.234Z,97296.78
2022-07-27T15:25:31.272Z,97304.75
2022-07-27T15:27:58.420Z,97302.69
2022-07-27T15:30:25.407Z,97301.44
2022-07-27T15:32:52.607Z,97299.94
2022-07-27T15:35:19.529Z,97293.75
2022-07-27T15:37:54.049Z,97298.44
2022-07-27T15:40:37.606Z,97294.09
2022-07-27T15:43:15.665Z,97302.09
2022-07-27T15:45:45.719Z,97296.34
2022-07-27T15:48:13.897Z,97300.91
2022-07-27T15:50:44.150Z,97307.69
2022-07-27T15:53:11.684Z,97308.44
2022-07-27T15:55:38.902Z,97313.72
2022-07-27T15:58:06.913Z,97308.56
2022-07-27T16:00:39.559Z,97312.94
2022-07-27T16:03:10.085Z,97313.09
2022-07-27T16:05:38.587Z,97308.69
2022-07-27T16:08:07.712Z,97311.75
2022-07-27T16:10:34.786Z,97306.53
2022-07-27T16:13:02.050Z,97317.56
2022-07-27T16:15:48.066Z,97316.63
2022-07-27T16:18:14.991Z,97325.91
2022-07-27T16:20:42.160Z,97310.38
2022-07-27T16:23:19.155Z,97318.66
2022-07-27T16:26:10.031Z,97318.84
2022-07-27T16:28:39.972Z,97324.03
2022-07-27T16:31:09.093Z,97333.69
2022-07-27T16:33:36.731Z,97319.59
2022-07-27T16:36:05.584Z,97329.41
2022-07-27T16:38:32.916Z,97322.34
2022-07-27T16:41:00.249Z,97331.06
2022-07-27T16:43:35.653Z,97325.47
2022-07-27T16:46:08.935Z,97329.00
2022-07-27T16:48:42.704Z,97323.88
2022-07-27T16:51:16.078Z,97327.91
2022-07-27T16:53:45.408Z,97330.97
2022-07-27T16:56:12.812Z,97339.44
2022-07-27T16:58:39.961Z,97340.13
2022-07-27T17:01:08.084Z,97341.06
2022-07-27T17:03:35.368Z,97340.47
2022-07-27T17:06:05.896Z,97345.66
2022-07-27T17:08:35.167Z,97351.59
2022-07-27T17:11:02.472Z,97348.06
2022-07-27T17:13:33.653Z,97352.25
2022-07-27T17:16:03.420Z,97352.59
2022-07-27T17:18:37.195Z,97351.00
2022-07-27T17:21:07.549Z,97351.28
2022-07-27T17:23:38.385Z,97354.16
2022-07-27T17:26:08.053Z,97362.81
2022-07-27T17:28:39.388Z,97358.34
2022-07-27T17:31:10.296Z,97366.53
2022-07-27T17:33:39.397Z,97360.91
2022-07-27T17:36:12.322Z,97361.88
2022-07-27T17:38:45.953Z,97364.75
2022-07-27T17:41:14.534Z,97363.16
2022-07-27T17:43:42.036Z,97362.53
2022-07-27T17:46:10.760Z,97360.28
2022-07-27T17:48:39.214Z,97358.97
2022-07-27T17:51:07.952Z,97369.72
2022-07-27T17:53:35.106Z,97374.53
2022-07-27T17:56:02.938Z,97371.63
2022-07-27T17:58:30.592Z,97379.78
2022-07-27T18:00:57.836Z,97378.47
2022-07-27T18:03:24.880Z,97389.84
2022-07-27T18:05:51.945Z,97391.28
2022-07-27T18:08:19.053Z,97389.19
2022-07-27T18:10:46.103Z,97392.50
2022-07-27T18:13:13.064Z,97409.59
2022-07-27T18:15:49.054Z,97413.75
2022-07-27T18:18:27.409Z,97426.38
2022-07-27T18:20:56.387Z,97431.38
2022-07-27T18:23:28.127Z,97430.84
2022-07-27T18:25:55.124Z,97428.78
2022-07-27T18:28:22.288Z,97428.13
2022-07-27T18:30:51.139Z,97433.25
2022-07-27T18:33:19.192Z,97432.28
2022-07-27T18:35:47.048Z,97434.09
2022-07-27T18:38:14.697Z,97436.50
2022-07-27T18:40:45.652Z,97442.91
2022-07-27T18:43:13.089Z,97451.03
2022-07-27T18:45:40.669Z,97452.50
2022-07-27T18:48:10.238Z,97455.72
2022-07-27T18:50:40.863Z,97459.72
2022-07-27T18:53:08.733Z,97461.34
2022-07-27T18:55:36.326Z,97449.16
2022-07-27T18:58:04.055Z,97453.97
2022-07-27T19:00:32.256Z,97467.91
2022-07-27T19:02:59.781Z,97463.44
2022-07-27T19:05:40.400Z,97466.66
2022-07-27T19:08:13.472Z,97477.50
2022-07-27T19:10:44.815Z,97478.63
2022-07-27T19:13:12.680Z,97479.41
2022-07-27T19:15:40.310Z,97484.88
2022-07-27T19:18:08.195Z,97489.56
2022-07-27T19:20:36.793Z,97488.31
2022-07-27T19:23:07.161Z,97482.53
2022-07-27T19:25:35.011Z,97490.28
2022-07-27T19:28:03.336Z,97498.56
2022-07-27T19:30:30.382Z,97497.25
2022-07-27T19:32:57.564Z,97500.31
2022-07-27T19:35:24.781Z,97495.34
2022-07-27T19:37:51.761Z,97500.97
2022-07-27T19:43:06.043Z,97510.19
2022-07-27T19:45:33.571Z,97518.56
2022-07-27T19:48:04.949Z,97523.47
2022-07-27T19:50:31.936Z,97526.31
2022-07-27T19:52:58.882Z,97532.34
2022-07-27T19:55:25.815Z,97530.25
2022-07-27T19:57:52.922Z,97537.72
2022-07-27T20:00:19.955Z,97541.75
2022-07-27T20:02:48.355Z,97540.16
2022-07-27T20:05:15.439Z,97547.69
2022-07-27T20:07:43.490Z,97549.41
2022-07-27T20:10:11.271Z,97561.09
2022-07-27T20:12:38.467Z,97552.03
2022-07-27T20:15:06.731Z,97558.75
2022-07-27T20:17:37.167Z,97561.09
2022-07-27T20:20:05.959Z,97554.41
2022-07-27T20:22:33.056Z,97563.56
2022-07-27T20:25:00.062Z,97560.84
2022-07-27T20:27:27.122Z,97573.47
2022-07-27T20:29:54.267Z,97571.41
2022-07-27T20:32:21.179Z,97568.84
2022-07-27T20:34:48.546Z,97571.72
2022-07-27T20:37:16.576Z,97569.00
2022-07-27T20:39:43.553Z,97565.91
2022-07-27T20:42:11.107Z,97566.91
2022-07-27T20:44:38.074Z,97563.19
2022-07-27T20:47:06.451Z,97568.13
2022-07-27T20:49:34.492Z,97567.66
2022-07-27T20:52:02.047Z,97572.56
2022-07-27T20:54:29.868Z,97564.81
2022-07-27T20:56:57.466Z,97560.91
2022-07-27T20:59:24.578Z,97564.41
2022-07-27T21:01:51.861Z,97558.69
2022-07-27T21:04:19.287Z,97563.91
2022-07-27T21:06:46.672Z,97560.91
2022-07-27T21:09:14.207Z,97568.13
2022-07-27T21:11:41.492Z,97562.19
2022-07-27T21:14:09.752Z,97561.09
2022-07-27T21:16:37.473Z,97562.50
2022-07-27T21:19:04.696Z,97573.28
2022-07-27T21:21:31.761Z,97580.31
2022-07-27T21:24:18.166Z,97578.13
2022-07-27T21:26:46.762Z,97584.03
2022-07-27T21:29:15.826Z,97592.13
2022-07-27T21:31:48.177Z,97591.31
2022-07-27T21:34:20.042Z,97597.56
2022-07-27T21:36:48.339Z,97591.31
2022-07-27T21:39:16.121Z,97591.00
2022-07-27T21:41:43.059Z,97592.94
2022-07-27T21:44:10.368Z,97588.91
2022-07-27T21:46:37.549Z,97600.28
2022-07-27T21:49:04.953Z,97595.53
2022-07-27T21:51:32.174Z,97593.50
2022-07-27T21:53:59.509Z,97598.22
2022-07-27T21:56:26.807Z,97598.72
2022-07-27T21:58:53.753Z,97590.34
2022-07-27T22:01:21.048Z,97593.91
2022-07-27T22:03:48.390Z,97598.03
2022-07-27T22:06:15.636Z,97594.06
2022-07-27T22:08:42.739Z,97610.59
2022-07-27T22:11:10.277Z,97608.34
2022-07-27T22:13:37.244Z,97608.25
2022-07-27T22:16:05.108Z,97610.34
2022-07-27T22:18:32.202Z,97613.06
2022-07-27T22:20:59.137Z,97615.50
2022-07-27T22:23:26.336Z,97617.53
2022-07-27T22:25:53.354Z,97618.75
2022-07-27T22:28:20.599Z,97621.47
2022-07-27T22:31:17.472Z,97618.13
2022-07-27T22:33:39.946Z,97614.50
2022-07-27T22:36:12.135Z,97620.44
2022-07-27T22:38:39.315Z,97615.19
2022-07-27T22:41:06.927Z,97612.94
2022-07-27T22:43:34.116Z,97621.78
2022-07-27T22:46:03.409Z,97630.03
2022-07-27T22:48:30.355Z,97633.25
2022-07-27T22:50:57.624Z,97618.72
2022-07-27T22:53:24.612Z,97622.44
2022-07-27T22:55:51.649Z,97620.38
2022-07-27T22:58:18.670Z,97610.28
2022-07-27T23:00:45.689Z,97611.03
2022-07-27T23:03:12.742Z,97626.56
2022-07-27T23:05:39.708Z,97623.84
2022-07-27T23:08:06.698Z,97615.69
2022-07-27T23:10:46.312Z,97624.16
2022-07-27T23:13:18.612Z,97627.69
2022-07-27T23:15:47.014Z,97618.31
2022-07-27T23:18:14.328Z,97617.06
2022-07-27T23:20:41.730Z,97624.22
2022-07-27T23:23:12.411Z,97627.25
2022-07-27T23:25:44.476Z,97621.13
2022-07-27T23:28:11.792Z,97615.66
2022-07-27T23:30:38.984Z,97619.66
2022-07-27T23:33:06.240Z,97620.88
2022-07-27T23:35:33.435Z,97624.88
2022-07-27T23:38:00.469Z,97614.31
2022-07-27T23:40:28.110Z,97613.22
2022-07-27T23:42:55.116Z,97606.16
2022-07-27T23:45:22.118Z,97599.19
2022-07-27T23:47:49.057Z,97597.63
2022-07-27T23:50:16.350Z,97591.03
2022-07-27T23:52:43.386Z,97596.63
2022-07-27T23:55:10.749Z,97593.59
2022-07-27T23:57:37.769Z,97592.91
